Huntsville, Kentucky
Current Conditions -  °F | °C
As of 5:53 AM on Friday 21 Nov 2014 (Local Time) from KBWG Reporting Station
Haze Haze  
Wind Chill: 21°   Ceiling: Unl
Heat Index: 21°   Visibility: 6mi
Dew Point: 16°   Wind: 0mph
Humidity: 81%   Direction: NA
Pressure: 30.45"   Gusts: NA
Location:  37.16°N, 86.88°W
Report Text: KBWG 211153Z AUTO 00000KT 6SM HZ CLR M06/M09 A3045 RMK AO2 SLP315 I1000 I6000 T10611089 11033 21067 53015
Loading
Personal Weather Stations






























Interactive Weather Map New forecast layout! Learn more

10-Day Weather Forecast

Advertisements
Track Severe Weather on mobile